Time;durP1;ratioP1;P1;durP2;ratioP2;P2;SDS_P1;SDS_P2;PMS_P1;PMS_P2;Temp;Humidity;BMP_temperature;BMP_pressure;BME280_temperature;BME280_humidity;BME280_pressure;Samples;Min_cycle;Max_cycle;Signal;HPM_P1;HPM_P2
2022/06/26 00:02:17;;;;;;;19.95;12.90;;;;;;;17.03;100.00;101147.53;4993785;28;20053;-43
2022/06/26 00:04:42;;;;;;;19.27;12.13;;;;;;;17.17;100.00;101136.91;4994061;28;20030;-43
2022/06/26 00:07:07;;;;;;;18.58;12.73;;;;;;;17.10;100.00;101127.34;4993915;28;20515;-44
2022/06/26 00:09:33;;;;;;;18.30;12.48;;;;;;;17.04;100.00;101135.28;4993609;28;20588;-41
2022/06/26 00:11:58;;;;;;;18.20;12.38;;;;;;;17.06;100.00;101136.66;4993870;28;20038;-41
2022/06/26 00:14:25;;;;;;;18.02;12.25;;;;;;;17.14;100.00;101128.47;4996799;28;20027;-42
2022/06/26 00:16:50;;;;;;;18.63;12.68;;;;;;;17.22;100.00;101130.00;4997143;28;20048;-42
2022/06/26 00:19:16;;;;;;;19.50;11.88;;;;;;;17.14;100.00;101132.91;4998134;28;20581;-43
2022/06/26 00:21:41;;;;;;;17.13;12.05;;;;;;;17.20;100.00;101137.25;4996805;28;20517;-43
2022/06/26 00:24:07;;;;;;;18.60;12.35;;;;;;;17.21;100.00;101133.63;4996263;28;20030;-44
2022/06/26 00:26:32;;;;;;;18.42;12.43;;;;;;;17.18;100.00;101139.31;4997318;28;20382;-43
2022/06/26 00:28:58;;;;;;;16.02;11.48;;;;;;;17.19;100.00;101134.88;4997385;28;20466;-43
2022/06/26 00:31:23;;;;;;;18.95;12.15;;;;;;;17.08;100.00;101145.03;4997601;28;20120;-42
2022/06/26 00:33:48;;;;;;;17.38;12.48;;;;;;;17.13;100.00;101153.00;4995944;28;20037;-43
2022/06/26 00:36:13;;;;;;;15.95;12.50;;;;;;;17.14;100.00;101159.81;4997141;28;20405;-43
2022/06/26 00:38:39;;;;;;;17.45;12.93;;;;;;;17.19;100.00;101163.59;4996966;28;20488;-43
2022/06/26 00:41:05;;;;;;;17.48;11.70;;;;;;;17.14;100.00;101154.59;4997627;28;20022;-43
2022/06/26 00:43:31;;;;;;;18.40;12.18;;;;;;;17.18;100.00;101149.75;4997274;28;20023;-42
2022/06/26 00:45:56;;;;;;;18.35;12.27;;;;;;;17.02;100.00;101147.75;4997291;28;20057;-43
2022/06/26 00:48:22;;;;;;;17.65;12.85;;;;;;;16.91;100.00;101154.50;4996913;28;20050;-43
2022/06/26 00:50:47;;;;;;;19.38;13.40;;;;;;;16.76;100.00;101160.09;4997631;28;20117;-42
2022/06/26 00:53:13;;;;;;;18.23;12.70;;;;;;;16.81;100.00;101152.41;4997457;28;20465;-43
2022/06/26 00:55:38;;;;;;;18.38;12.75;;;;;;;16.88;100.00;101149.72;4995599;28;20030;-42
2022/06/26 00:58:04;;;;;;;20.02;12.60;;;;;;;17.05;100.00;101160.34;4979490;28;20109;-43
2022/06/26 01:00:29;;;;;;;18.88;12.52;;;;;;;17.06;100.00;101162.75;4996727;28;20030;-42
2022/06/26 01:02:54;;;;;;;18.67;12.07;;;;;;;17.10;100.00;101161.28;4996690;28;20045;-42
2022/06/26 01:05:20;;;;;;;15.75;12.10;;;;;;;17.13;100.00;101162.66;4996735;28;20026;-43
2022/06/26 01:07:45;;;;;;;16.02;11.80;;;;;;;17.18;100.00;101170.63;4996879;28;20037;-41
2022/06/26 01:10:11;;;;;;;15.68;11.38;;;;;;;17.16;100.00;101177.09;4996646;28;20053;-43
2022/06/26 01:12:36;;;;;;;19.15;11.57;;;;;;;17.14;100.00;101178.09;4997023;28;20468;-42
2022/06/26 01:15:06;;;;;;;16.02;11.82;;;;;;;17.19;100.00;101181.88;4996529;28;20361;-42
2022/06/26 01:17:33;;;;;;;18.17;11.43;;;;;;;17.12;100.00;101181.97;4995819;28;20138;-42
2022/06/26 01:19:59;;;;;;;17.05;11.55;;;;;;;17.12;100.00;101182.75;4996397;28;20109;-42
2022/06/26 01:22:28;;;;;;;14.65;11.85;;;;;;;17.13;100.00;101181.75;4996355;28;20064;-43
2022/06/26 01:24:54;;;;;;;17.70;11.55;;;;;;;17.08;100.00;101181.59;4993977;28;20484;-42
2022/06/26 01:27:19;;;;;;;18.10;12.05;;;;;;;17.14;100.00;101175.47;4997194;28;20102;-42
2022/06/26 01:29:44;;;;;;;19.35;12.55;;;;;;;17.18;100.00;101178.47;4994849;28;20030;-42
2022/06/26 01:32:10;;;;;;;17.63;12.27;;;;;;;17.12;100.00;101181.97;4995753;28;20026;-43
2022/06/26 01:34:35;;;;;;;17.48;12.73;;;;;;;17.00;100.00;101183.72;4996299;28;20030;-43
2022/06/26 01:37:01;;;;;;;19.50;12.77;;;;;;;16.96;100.00;101182.56;4996110;28;20030;-44
2022/06/26 01:39:27;;;;;;;18.95;13.52;;;;;;;16.86;100.00;101186.50;4995998;28;20385;-43
2022/06/26 01:41:52;;;;;;;19.90;13.15;;;;;;;16.98;100.00;101190.97;4995595;28;20023;-42
2022/06/26 01:44:18;;;;;;;21.75;14.43;;;;;;;16.87;100.00;101185.47;4996514;28;20113;-42
2022/06/26 01:46:43;;;;;;;19.40;14.18;;;;;;;16.92;100.00;101200.47;4996101;28;20022;-43
2022/06/26 01:49:08;;;;;;;23.30;14.60;;;;;;;16.97;100.00;101195.38;4995685;28;20054;-42
2022/06/26 01:51:34;;;;;;;22.23;15.25;;;;;;;17.02;100.00;101192.91;4995854;28;20038;-43
2022/06/26 01:53:59;;;;;;;21.77;15.13;;;;;;;16.98;100.00;101191.78;4995645;28;20102;-42
2022/06/26 01:56:25;;;;;;;26.40;15.30;;;;;;;16.94;100.00;101201.03;4995556;28;20026;-43
2022/06/26 01:58:51;;;;;;;23.23;15.43;;;;;;;16.80;100.00;101184.75;4995630;28;20077;-41
2022/06/26 02:01:17;;;;;;;20.98;14.82;;;;;;;16.88;100.00;101194.88;4995929;28;20026;-42
2022/06/26 02:03:42;;;;;;;20.55;14.93;;;;;;;16.92;100.00;101200.47;4995584;28;20026;-42
2022/06/26 02:06:07;;;;;;;20.05;13.63;;;;;;;16.94;100.00;101202.88;4996010;28;20027;-41
2022/06/26 02:08:33;;;;;;;21.65;14.48;;;;;;;16.84;100.00;101200.78;4994166;28;20022;-42
2022/06/26 02:13:43;;;;;;;22.48;14.00;;;;;;;16.73;100.00;101198.84;4995910;28;20038;-42
2022/06/26 02:16:15;;;;;;;19.63;12.80;;;;;;;16.71;100.00;101188.63;4995586;28;20174;-42
2022/06/26 02:18:41;;;;;;;18.98;13.35;;;;;;;16.60;100.00;101179.72;4995489;28;20080;-42
2022/06/26 02:21:09;;;;;;;19.88;12.07;;;;;;;16.55;100.00;101176.97;4995205;28;20018;-43
2022/06/26 02:23:35;;;;;;;19.55;11.93;;;;;;;16.36;100.00;101176.13;4995171;28;20075;-43
2022/06/26 02:26:01;;;;;;;22.20;11.95;;;;;;;16.36;100.00;101191.78;4995023;28;20095;-42
2022/06/26 02:28:26;;;;;;;21.23;12.40;;;;;;;16.32;100.00;101197.66;4995207;28;20034;-42
2022/06/26 02:30:52;;;;;;;23.95;11.98;;;;;;;16.26;100.00;101206.34;4995671;28;20026;-41
2022/06/26 02:33:19;;;;;;;19.60;11.73;;;;;;;16.28;100.00;101194.66;4995306;28;20033;-43
2022/06/26 02:35:45;;;;;;;20.92;11.77;;;;;;;16.32;100.00;101192.44;4994980;28;20018;-43
2022/06/26 02:38:10;;;;;;;21.38;12.38;;;;;;;16.36;100.00;101180.56;4995166;28;20351;-44
2022/06/26 02:40:36;;;;;;;20.27;12.57;;;;;;;16.22;100.00;101180.66;4995102;28;20030;-43
2022/06/26 02:43:01;;;;;;;26.25;13.10;;;;;;;16.15;100.00;101171.31;4994836;28;20112;-43
2022/06/26 02:45:27;;;;;;;20.35;12.35;;;;;;;16.15;100.00;101172.13;4995105;28;20109;-43
2022/06/26 02:47:52;;;;;;;20.67;12.95;;;;;;;16.27;100.00;101158.38;4994984;28;20481;-42
2022/06/26 02:50:17;;;;;;;24.73;13.02;;;;;;;16.24;100.00;101152.56;4993458;28;20030;-43
2022/06/26 02:52:43;;;;;;;25.02;12.50;;;;;;;16.32;100.00;101166.38;4994888;28;20028;-42
2022/06/26 02:55:09;;;;;;;23.65;13.18;;;;;;;16.22;100.00;101178.06;4994616;28;20048;-43
2022/06/26 02:57:34;;;;;;;22.98;13.60;;;;;;;16.28;100.00;101178.22;4994704;28;20471;-43
2022/06/26 03:00:00;;;;;;;22.77;13.38;;;;;;;16.35;100.00;101189.41;4994873;28;20088;-43
2022/06/26 03:02:26;;;;;;;24.92;14.05;;;;;;;16.25;100.00;101176.84;4995020;28;20030;-42
2022/06/26 03:04:52;;;;;;;24.05;13.90;;;;;;;16.34;100.00;101191.22;4995015;28;20026;-41
2022/06/26 03:07:18;;;;;;;23.45;13.73;;;;;;;16.30;100.00;101189.25;4995087;28;20026;-42
2022/06/26 03:09:43;;;;;;;23.05;13.43;;;;;;;16.16;100.00;101191.16;4994375;28;20030;-43
2022/06/26 03:12:09;;;;;;;23.20;13.32;;;;;;;16.17;100.00;101188.34;4994519;28;20150;-43
2022/06/26 03:14:35;;;;;;;21.50;13.48;;;;;;;16.19;100.00;101199.34;4994269;28;20388;-42
2022/06/26 03:17:00;;;;;;;23.63;14.02;;;;;;;15.96;100.00;101188.72;4994513;28;20022;-42
2022/06/26 03:19:27;;;;;;;23.20;14.15;;;;;;;16.06;100.00;101189.03;4994282;28;20018;-42
2022/06/26 03:21:52;;;;;;;23.70;14.23;;;;;;;16.16;100.00;101194.56;4994463;28;20052;-41
2022/06/26 03:24:18;;;;;;;25.58;14.10;;;;;;;16.10;100.00;101192.03;4994463;28;20022;-43
2022/06/26 03:26:43;;;;;;;26.55;15.02;;;;;;;16.06;100.00;101203.91;4994776;28;20014;-42
2022/06/26 03:29:10;;;;;;;27.75;14.65;;;;;;;16.00;100.00;101213.38;4994281;28;20109;-43
2022/06/26 03:31:36;;;;;;;23.90;14.02;;;;;;;15.96;100.00;101214.78;4993570;28;20096;-41
2022/06/26 03:34:03;;;;;;;25.60;14.65;;;;;;;16.12;100.00;101218.69;4994330;28;20109;-43
2022/06/26 03:36:28;;;;;;;27.90;15.52;;;;;;;16.20;100.00;101224.44;4994015;28;20473;-42
2022/06/26 03:38:54;;;;;;;27.63;14.93;;;;;;;16.13;100.00;101212.44;4994211;28;20026;-43
2022/06/26 03:41:20;;;;;;;26.33;15.18;;;;;;;16.12;100.00;101214.25;4993970;28;20084;-41
2022/06/26 03:43:46;;;;;;;25.13;15.20;;;;;;;16.13;100.00;101218.44;4992825;28;20026;-42
2022/06/26 03:46:12;;;;;;;27.60;14.52;;;;;;;15.98;100.00;101213.56;4994169;28;20038;-46
2022/06/26 03:48:38;;;;;;;24.75;14.68;;;;;;;15.96;100.00;101217.38;4995683;28;20046;-43
2022/06/26 03:51:04;;;;;;;27.00;15.02;;;;;;;16.01;100.00;101222.78;4996790;28;20161;-42
2022/06/26 03:53:30;;;;;;;27.42;15.00;;;;;;;15.91;100.00;101219.81;4998201;28;20026;-42
2022/06/26 03:55:56;;;;;;;30.15;14.95;;;;;;;15.92;100.00;101229.25;4996933;28;20038;-41
2022/06/26 03:58:22;;;;;;;25.77;13.93;;;;;;;15.91;100.00;101236.28;4998437;28;20120;-41
2022/06/26 04:00:48;;;;;;;26.17;14.75;;;;;;;15.91;100.00;101238.06;4996523;28;20026;-42
2022/06/26 04:03:13;;;;;;;28.77;15.18;;;;;;;15.83;100.00;101243.56;4997847;28;20448;-42
2022/06/26 04:05:39;;;;;;;26.52;15.38;;;;;;;15.83;100.00;101243.56;4998073;28;20080;-43
2022/06/26 04:08:05;;;;;;;27.33;14.52;;;;;;;15.74;100.00;101241.19;4997805;28;20061;-43
2022/06/26 04:10:31;;;;;;;27.30;14.77;;;;;;;15.86;100.00;101246.53;4997806;28;20031;-41
2022/06/26 04:13:01;;;;;;;32.38;14.40;;;;;;;15.82;100.00;101255.75;4997685;28;20034;-43
2022/06/26 04:15:31;;;;;;;26.48;14.52;;;;;;;15.75;100.00;101257.63;4996377;28;20034;-42
2022/06/26 04:17:57;;;;;;;26.70;14.50;;;;;;;15.77;100.00;101261.63;4998039;28;20022;-42
2022/06/26 04:20:23;;;;;;;28.77;14.60;;;;;;;15.87;100.00;101262.97;4997455;28;20031;-43
2022/06/26 04:22:58;;;;;;;28.40;14.45;;;;;;;15.73;100.00;101259.63;4997731;28;20492;-43
2022/06/26 04:25:24;;;;;;;29.05;15.05;;;;;;;15.77;100.00;101266.81;4997401;28;20077;-43
2022/06/26 04:27:50;;;;;;;25.83;14.57;;;;;;;15.85;100.00;101263.16;4997242;28;20030;-42
2022/06/26 04:30:15;;;;;;;21.58;13.38;;;;;;;15.87;100.00;101262.97;4997428;28;20037;-43
2022/06/26 04:32:41;;;;;;;26.85;14.50;;;;;;;15.91;100.00;101269.34;4997787;28;20026;-42
2022/06/26 04:35:08;;;;;;;24.33;12.95;;;;;;;15.90;100.00;101265.94;4995953;28;20057;-43
2022/06/26 04:37:33;;;;;;;29.90;14.43;;;;;;;15.89;100.00;101258.34;4996989;28;20065;-43
2022/06/26 04:39:59;;;;;;;22.73;13.70;;;;;;;15.92;100.00;101269.13;4997403;28;20440;-43
2022/06/26 04:42:24;;;;;;;24.45;12.95;;;;;;;15.94;100.00;101272.34;4997064;28;20547;-42
2022/06/26 04:44:49;;;;;;;24.38;13.10;;;;;;;15.98;100.00;101270.09;4997313;28;20030;-43
2022/06/26 04:47:14;;;;;;;33.03;13.20;;;;;;;16.00;100.00;101273.31;4995766;28;20026;-41
2022/06/26 04:49:40;;;;;;;23.52;12.38;;;;;;;16.00;100.00;101281.94;4996790;28;20507;-42
2022/06/26 04:52:05;;;;;;;24.23;12.65;;;;;;;15.96;100.00;101296.38;4996777;28;20018;-41
2022/06/26 04:54:31;;;;;;;24.70;12.43;;;;;;;15.89;100.00;101287.00;4997119;28;20026;-42
2022/06/26 04:56:56;;;;;;;22.45;11.77;;;;;;;15.98;100.00;101286.53;4996793;28;20025;-43
2022/06/26 04:59:21;;;;;;;20.73;11.35;;;;;;;15.87;100.00;101291.63;4996747;28;20023;-42
2022/06/26 05:01:47;;;;;;;16.48;10.57;;;;;;;15.93;100.00;101302.00;4996748;28;20116;-47
2022/06/26 05:04:12;;;;;;;23.20;10.48;;;;;;;15.97;100.00;101299.81;4996929;28;20073;-42
2022/06/26 05:06:37;;;;;;;18.95;10.45;;;;;;;16.04;100.00;101307.56;4996647;28;20504;-42
2022/06/26 05:09:03;;;;;;;23.30;10.38;;;;;;;16.24;100.00;101298.59;4996078;28;20062;-43
2022/06/26 05:11:28;;;;;;;20.85;10.57;;;;;;;16.50;100.00;101311.66;4996852;28;20034;-43
2022/06/26 05:13:54;;;;;;;19.83;10.25;;;;;;;16.39;100.00;101318.34;5011582;28;20053;-42
2022/06/26 05:16:19;;;;;;;20.45;10.10;;;;;;;17.43;94.77;101319.41;4996710;28;20109;-42
2022/06/26 05:18:45;;;;;;;19.60;9.90;;;;;;;17.12;94.02;101313.31;4995231;28;20025;-43
2022/06/26 05:21:11;;;;;;;19.23;9.77;;;;;;;16.76;95.10;101323.69;4995103;28;20496;-42
2022/06/26 05:23:36;;;;;;;17.40;9.20;;;;;;;16.75;96.13;101327.31;4996389;28;20029;-42
2022/06/26 05:26:02;;;;;;;19.65;9.18;;;;;;;16.85;96.38;101322.44;4997058;28;20030;-43
2022/06/26 05:28:27;;;;;;;16.85;9.35;;;;;;;17.14;94.63;101326.94;4996339;28;20022;-42
2022/06/26 05:30:52;;;;;;;17.98;8.68;;;;;;;17.76;89.85;101320.81;5011211;28;20393;-43
2022/06/26 05:33:18;;;;;;;17.63;8.63;;;;;;;19.61;82.14;101318.75;4996206;28;20109;-43
2022/06/26 05:35:43;;;;;;;16.35;8.20;;;;;;;21.93;69.19;101317.31;4994730;28;20084;-44
2022/06/26 05:38:08;;;;;;;12.98;6.95;;;;;;;25.35;57.16;101319.94;5011039;28;20085;-43
2022/06/26 05:40:34;;;;;;;12.40;7.22;;;;;;;26.03;52.73;101323.72;4996209;28;20026;-43
2022/06/26 05:42:59;;;;;;;14.32;6.78;;;;;;;25.79;54.26;101316.47;4996318;28;20033;-40
2022/06/26 05:45:24;;;;;;;13.40;6.75;;;;;;;24.88;57.18;101325.66;4996363;28;20062;-42
2022/06/26 05:47:49;;;;;;;12.90;6.57;;;;;;;27.13;50.01;101330.03;4995576;28;20065;-43
2022/06/26 05:50:15;;;;;;;11.45;6.10;;;;;;;26.65;49.98;101339.88;4996472;28;20026;-44
2022/06/26 05:52:40;;;;;;;14.15;6.70;;;;;;;26.11;51.90;101342.47;4996324;28;20081;-43
2022/06/26 05:55:07;;;;;;;11.93;5.80;;;;;;;27.51;47.95;101355.84;4996325;28;20018;-43
2022/06/26 05:57:32;;;;;;;14.13;6.25;;;;;;;23.10;61.77;101366.63;4995961;28;20458;-43
2022/06/26 05:59:57;;;;;;;17.38;6.95;;;;;;;22.47;63.60;101369.09;4995926;28;20022;-41
2022/06/26 06:02:23;;;;;;;14.90;6.60;;;;;;;20.36;73.27;101367.56;4994310;28;20034;-42
2022/06/26 06:04:48;;;;;;;13.43;6.53;;;;;;;23.34;62.29;101373.06;4995798;28;20081;-42
2022/06/26 06:07:14;;;;;;;13.00;6.50;;;;;;;21.64;63.82;101361.50;4995665;28;20026;-43
2022/06/26 06:09:39;;;;;;;10.65;6.30;;;;;;;24.58;56.59;101361.66;4994441;28;20061;-43
2022/06/26 06:12:05;;;;;;;11.73;6.25;;;;;;;25.51;54.00;101365.59;4993624;28;20023;-42
2022/06/26 06:14:30;;;;;;;13.48;6.80;;;;;;;26.25;50.80;101376.25;4995388;28;20022;-41
2022/06/26 06:16:55;;;;;;;10.57;5.45;;;;;;;24.98;54.45;101376.66;4995373;28;20057;-42
2022/06/26 06:19:21;;;;;;;13.35;6.20;;;;;;;26.81;51.65;101385.56;4995530;28;20028;-43
2022/06/26 06:21:46;;;;;;;10.63;6.13;;;;;;;24.56;53.57;101382.28;4995266;28;20037;-42
2022/06/26 06:24:12;;;;;;;12.30;6.32;;;;;;;22.44;62.11;101388.03;4995129;28;20066;-41
2022/06/26 06:26:38;;;;;;;10.93;5.90;;;;;;;26.65;49.81;101391.03;4995638;28;20037;-42
2022/06/26 06:29:03;;;;;;;9.80;5.97;;;;;;;22.43;60.13;101399.63;4995013;28;20030;-43
2022/06/26 06:31:28;;;;;;;10.85;5.82;;;;;;;21.94;63.65;101397.03;4994956;28;20037;-42
2022/06/26 06:33:53;;;;;;;12.15;6.70;;;;;;;20.30;70.61;101400.00;4995282;28;20488;-42
2022/06/26 06:36:19;;;;;;;10.15;6.28;;;;;;;21.69;65.36;101395.72;4995201;28;20062;-44
2022/06/26 06:38:44;;;;;;;11.35;6.38;;;;;;;21.47;65.66;101397.59;4994771;28;20461;-43
2022/06/26 06:41:10;;;;;;;11.85;6.45;;;;;;;20.12;71.02;101397.59;4994930;28;20472;-42
2022/06/26 06:43:35;;;;;;;13.50;6.75;;;;;;;19.79;72.96;101401.69;4993658;28;20029;-42
2022/06/26 06:46:01;;;;;;;12.40;6.65;;;;;;;19.30;75.23;101414.31;4994809;28;20038;-42
2022/06/26 06:48:26;;;;;;;11.35;6.80;;;;;;;19.37;74.19;101413.16;4994636;28;20515;-45
2022/06/26 06:50:53;;;;;;;10.88;6.40;;;;;;;19.83;73.08;101411.50;4994482;28;20025;-42
2022/06/26 06:53:19;;;;;;;11.20;6.72;;;;;;;19.44;76.37;101407.78;4994890;28;20026;-41
2022/06/26 06:55:44;;;;;;;10.27;6.07;;;;;;;19.48;76.86;101429.91;4995165;28;20462;-41
2022/06/26 06:58:09;;;;;;;13.98;6.18;;;;;;;19.97;74.01;101434.84;4994699;28;20076;-42
2022/06/26 07:00:35;;;;;;;13.75;6.45;;;;;;;20.09;74.23;101440.06;4994380;28;20130;-42
2022/06/26 07:03:02;;;;;;;10.75;6.10;;;;;;;19.99;73.67;101438.00;4993739;28;20475;-42
2022/06/26 07:05:28;;;;;;;11.80;5.82;;;;;;;19.48;77.20;101450.06;4993173;28;20022;-45
2022/06/26 07:07:53;;;;;;;10.00;5.63;;;;;;;20.39;73.74;101437.16;4994163;28;20032;-41
2022/06/26 07:10:18;;;;;;;13.15;5.72;;;;;;;19.96;72.19;101441.09;4994462;28;20091;-42
2022/06/26 07:12:59;;;;;;;7.72;5.32;;;;;;;19.88;73.77;101444.09;4993387;28;20029;-43
2022/06/26 07:15:25;;;;;;;12.35;5.45;;;;;;;19.64;76.73;101459.84;4994303;28;20496;-43
2022/06/26 07:17:50;;;;;;;10.35;5.30;;;;;;;19.73;74.85;101468.19;4994226;28;20453;-42
2022/06/26 07:20:16;;;;;;;8.75;4.78;;;;;;;19.57;74.58;101453.94;4994496;28;20030;-41
2022/06/26 07:22:41;;;;;;;10.30;5.00;;;;;;;19.57;74.76;101464.44;4992979;28;20026;-42
2022/06/26 07:25:08;;;;;;;8.07;4.63;;;;;;;20.13;73.62;101464.78;4993775;28;20022;-42
2022/06/26 07:27:33;;;;;;;9.73;4.70;;;;;;;20.77;69.58;101465.38;4993539;28;20041;-42
2022/06/26 07:29:58;;;;;;;8.38;4.93;;;;;;;21.49;68.69;101469.09;4993881;28;20026;-43
2022/06/26 07:32:24;;;;;;;10.57;4.32;;;;;;;20.81;68.00;101479.66;4993358;28;20065;-42
2022/06/26 07:34:49;;;;;;;7.70;4.60;;;;;;;20.32;69.46;101486.41;4993959;28;20061;-42
2022/06/26 07:37:15;;;;;;;11.23;4.55;;;;;;;20.60;68.14;101478.53;4993896;28;20381;-42
2022/06/26 07:39:40;;;;;;;9.15;4.05;;;;;;;20.16;70.74;101475.59;4993646;28;20449;-42
2022/06/26 07:42:05;;;;;;;8.48;3.70;;;;;;;20.57;68.23;101467.69;4993441;28;20029;-43
2022/06/26 07:44:31;;;;;;;9.25;3.40;;;;;;;20.61;66.37;101466.19;4994140;28;20465;-43
2022/06/26 07:47:00;;;;;;;9.43;3.70;;;;;;;20.73;70.22;101464.28;4993682;28;20034;-42
2022/06/26 07:49:25;;;;;;;8.30;3.58;;;;;;;20.16;70.28;101466.94;4993594;28;20393;-42
2022/06/26 07:51:50;;;;;;;4.70;3.30;;;;;;;20.33;69.26;101472.22;4993354;28;20023;-42
2022/06/26 07:54:16;;;;;;;8.77;3.72;;;;;;;20.56;68.24;101481.84;4993760;28;20030;-42
2022/06/26 07:56:42;;;;;;;9.85;3.92;;;;;;;20.21;66.73;101475.69;4993742;28;20034;-42
2022/06/26 07:59:08;;;;;;;11.95;3.72;;;;;;;20.43;66.68;101475.06;4994107;28;20023;-42
2022/06/26 08:01:34;;;;;;;7.53;3.70;;;;;;;20.32;66.34;101483.78;4993775;28;20026;-42
2022/06/26 08:04:00;;;;;;;7.18;3.80;;;;;;;20.36;67.64;101488.31;4994074;28;20033;-44
2022/06/26 08:06:26;;;;;;;8.05;3.65;;;;;;;19.88;68.61;101497.38;4993832;28;20492;-41
2022/06/26 08:08:52;;;;;;;8.27;3.95;;;;;;;19.49;70.01;101504.09;4993907;28;20026;-42
2022/06/26 08:11:17;;;;;;;8.20;4.10;;;;;;;19.84;69.83;101515.38;4993919;28;20018;-42
2022/06/26 08:13:43;;;;;;;9.40;4.22;;;;;;;20.03;71.32;101510.00;4993607;28;20149;-42
2022/06/26 08:16:09;;;;;;;8.77;3.90;;;;;;;19.86;68.40;101519.59;4993954;28;20109;-43
2022/06/26 08:18:34;;;;;;;10.73;4.45;;;;;;;19.95;69.14;101507.72;4993675;28;20032;-43
2022/06/26 08:22:00;;;;;;;9.20;3.63;;;;;;;20.00;68.64;101515.69;4993686;28;20026;-44
2022/06/26 08:23:45;;;;;;;7.15;3.80;;;;;;;19.78;69.69;101510.25;4993561;28;20030;-44
2022/06/26 08:26:10;;;;;;;8.32;4.10;;;;;;;19.65;72.80;101513.06;4993725;28;20157;-44
2022/06/26 08:28:37;;;;;;;6.57;3.50;;;;;;;19.07;69.29;101510.19;4993598;28;20033;-43
2022/06/26 08:31:02;;;;;;;9.52;3.70;;;;;;;19.45;71.23;101506.38;4994135;28;20049;-44
2022/06/26 08:33:28;;;;;;;10.63;4.30;;;;;;;19.10;70.87;101511.56;4993625;28;20022;-42
2022/06/26 08:35:53;;;;;;;9.55;3.97;;;;;;;19.20;72.89;101506.59;4997740;28;20455;-44
2022/06/26 08:38:18;;;;;;;8.48;3.95;;;;;;;19.25;71.47;101509.34;4997488;28;20440;-42
2022/06/26 08:40:45;;;;;;;7.13;3.63;;;;;;;19.30;72.20;101508.63;4996018;28;20040;-41
2022/06/26 08:43:13;;;;;;;7.90;3.88;;;;;;;19.53;71.59;101515.72;4997113;28;20477;-42
2022/06/26 08:45:40;;;;;;;7.57;3.50;;;;;;;19.47;70.47;101512.16;4997271;28;20029;-44
2022/06/26 08:48:09;;;;;;;6.13;3.50;;;;;;;19.44;69.31;101509.22;4996678;28;20081;-42
2022/06/26 08:50:34;;;;;;;9.32;3.72;;;;;;;19.39;69.68;101513.34;4996937;28;20116;-44
2022/06/26 08:53:01;;;;;;;7.97;3.40;;;;;;;19.55;70.31;101522.31;4996950;28;20106;-42
2022/06/26 08:55:27;;;;;;;7.65;3.42;;;;;;;19.68;69.17;101510.03;4996796;28;20022;-42
2022/06/26 08:57:53;;;;;;;7.90;3.10;;;;;;;19.89;68.22;101513.91;4997320;28;20054;-42
2022/06/26 09:00:19;;;;;;;7.43;3.00;;;;;;;19.94;66.91;101512.19;4997211;28;20022;-43
2022/06/26 09:02:44;;;;;;;5.78;3.22;;;;;;;19.81;69.55;101513.22;4996654;28;20034;-42
2022/06/26 09:05:10;;;;;;;7.05;3.10;;;;;;;19.99;68.21;101511.47;4996818;28;20114;-42
2022/06/26 09:07:51;;;;;;;4.57;3.25;;;;;;;20.56;66.93;101492.34;4997190;28;20532;-41
2022/06/26 09:10:17;;;;;;;5.30;2.97;;;;;;;20.81;65.92;101508.56;4995556;28;20022;-43
2022/06/26 09:12:49;;;;;;;7.97;3.45;;;;;;;20.97;66.44;101504.31;4996724;28;20085;-42
2022/06/26 09:15:19;;;;;;;8.13;3.47;;;;;;;20.73;65.93;101522.06;4996893;28;20034;-42
2022/06/26 09:18:14;;;;;;;5.72;3.03;;;;;;;20.20;69.56;101520.56;4996352;28;20034;-41
2022/06/26 09:20:51;;;;;;;7.25;3.08;;;;;;;20.08;63.19;101517.16;4983625;28;20042;-42
2022/06/26 09:23:17;;;;;;;5.50;2.65;;;;;;;20.16;63.75;101524.66;4997376;28;20095;-41
2022/06/26 09:25:43;;;;;;;7.05;2.60;;;;;;;20.31;64.55;101519.69;4996499;28;20457;-43
2022/06/26 09:28:17;;;;;;;7.18;2.95;;;;;;;20.60;65.30;101517.09;4996113;28;20449;-43
2022/06/26 09:30:50;;;;;;;7.30;2.80;;;;;;;20.79;64.01;101528.22;4996446;28;20358;-42
2022/06/26 09:33:18;;;;;;;7.32;3.25;;;;;;;20.97;62.79;101527.97;4996069;28;20030;-44
2022/06/26 09:35:44;;;;;;;5.88;2.45;;;;;;;21.47;60.27;101527.22;4996283;28;20037;-41
2022/06/26 09:38:09;;;;;;;5.03;2.60;;;;;;;20.64;61.27;101531.38;4996096;28;20030;-43
2022/06/26 09:40:34;;;;;;;7.55;3.08;;;;;;;20.18;63.35;101544.38;4995944;28;20478;-41
2022/06/26 09:43:00;;;;;;;4.40;2.45;;;;;;;20.53;63.59;101535.63;4996081;28;20022;-44
2022/06/26 09:45:25;;;;;;;8.88;2.42;;;;;;;20.37;62.54;101537.16;4995196;28;20026;-42
2022/06/26 09:47:52;;;;;;;5.20;2.20;;;;;;;19.82;63.89;101542.84;4995969;28;20049;-42
2022/06/26 09:50:19;;;;;;;6.15;2.30;;;;;;;20.42;62.88;101539.84;4996114;28;20346;-44
2022/06/26 09:52:45;;;;;;;5.80;2.40;;;;;;;19.91;63.36;101540.66;4995849;28;20081;-44
2022/06/26 09:55:11;;;;;;;3.63;2.10;;;;;;;20.18;62.78;101533.91;4996306;28;20053;-45
2022/06/26 09:57:38;;;;;;;5.97;2.13;;;;;;;20.39;61.84;101542.94;4996239;28;20489;-43
2022/06/26 10:00:04;;;;;;;3.72;2.00;;;;;;;20.49;62.37;101540.53;4995608;28;20073;-44
2022/06/26 10:08:09;;;;;;;4.90;1.90;;;;;;;20.72;60.80;101533.63;4995773;28;20401;-44
2022/06/26 10:10:35;;;;;;;6.25;2.22;;;;;;;20.90;60.83;101535.22;4993779;28;20030;-43
2022/06/26 10:13:03;;;;;;;5.63;2.28;;;;;;;20.62;60.69;101534.22;4995522;28;20042;-42
2022/06/26 10:15:35;;;;;;;4.10;2.22;;;;;;;20.86;62.69;101542.78;4995783;28;20030;-42
2022/06/26 10:18:30;;;;;;;5.38;2.10;;;;;;;20.94;61.60;101538.97;4994976;28;20465;-44
2022/06/26 10:21:05;;;;;;;11.32;2.80;;;;;;;21.11;61.10;101528.47;4990327;28;20100;-44
2022/06/26 10:23:38;;;;;;;4.30;1.92;;;;;;;20.95;59.65;101538.75;4995293;28;20061;-44
2022/06/26 10:26:14;;;;;;;4.05;2.00;;;;;;;20.72;60.83;101531.78;4993918;28;20102;-46
2022/06/26 10:29:01;;;;;;;3.95;2.25;;;;;;;20.88;60.63;101532.03;4995522;28;20477;-44
2022/06/26 10:31:50;;;;;;;4.50;2.60;;;;;;;21.41;59.00;101541.31;4995983;28;20338;-44
2022/06/26 10:34:19;;;;;;;7.35;4.60;;;;;;;21.23;58.77;101544.16;4994314;28;20038;-44
2022/06/26 10:36:59;;;;;;;5.25;2.20;;;;;;;20.95;59.06;101538.75;4995495;28;20512;-43
2022/06/26 10:39:39;;;;;;;7.05;2.15;;;;;;;21.56;58.79;101546.78;4995106;28;20041;-40
2022/06/26 10:45:21;;;;;;;5.45;2.00;;;;;;;21.88;56.52;101548.78;4995236;28;20049;-44
2022/06/26 10:47:51;;;;;;;5.18;2.45;;;;;;;22.30;56.33;101549.06;4994952;28;20096;-42
2022/06/26 10:50:41;;;;;;;7.53;2.72;;;;;;;22.19;56.02;101554.47;4994660;28;20066;-41
2022/06/26 10:53:30;;;;;;;6.80;2.40;;;;;;;22.16;56.24;101563.63;4995172;28;20022;-41
2022/06/26 10:56:01;;;;;;;6.72;2.40;;;;;;;22.13;56.03;101563.31;4995065;28;20077;-43
2022/06/26 10:58:42;;;;;;;6.88;2.33;;;;;;;21.69;55.65;101561.41;4994460;28;20022;-43
2022/06/26 11:01:09;;;;;;;7.32;2.25;;;;;;;22.58;54.90;101556.97;4994492;28;20030;-43
2022/06/26 11:03:37;;;;;;;7.00;2.58;;;;;;;23.10;59.24;101565.16;4994096;28;20076;-44
2022/06/26 11:06:05;;;;;;;5.28;2.30;;;;;;;22.70;55.87;101563.72;4994003;28;20057;-44
2022/06/26 11:08:33;;;;;;;5.07;2.45;;;;;;;21.88;55.73;101563.78;4994326;28;20038;-44
2022/06/26 11:11:17;;;;;;;7.47;2.88;;;;;;;21.60;57.60;101562.88;4994680;28;20109;-43
2022/06/26 11:13:53;;;;;;;13.43;3.22;;;;;;;21.80;58.36;101568.41;4994331;28;20062;-46
2022/06/26 11:16:38;;;;;;;7.93;2.35;;;;;;;22.35;57.33;101558.84;4994741;28;20022;-40
2022/06/26 11:19:05;;;;;;;7.38;2.40;;;;;;;22.02;56.35;101567.66;4994238;28;20018;-43
2022/06/26 11:21:31;;;;;;;5.57;2.50;;;;;;;21.69;56.72;101560.63;4994583;28;20029;-42
2022/06/26 11:23:57;;;;;;;4.80;2.47;;;;;;;21.95;54.38;101552.06;4994720;28;20038;-43